createdAt,value
2018-01-23T00:00:09.507Z,65.90
2018-01-23T00:02:38.468Z,65.90
2018-01-23T00:05:07.439Z,65.80
2018-01-23T00:07:36.386Z,65.40
2018-01-23T00:10:05.371Z,65.30
2018-01-23T00:12:34.325Z,65.20
2018-01-23T00:15:03.315Z,65.00
2018-01-23T00:17:33.170Z,64.70
2018-01-23T00:20:02.156Z,64.60
2018-01-23T00:22:31.871Z,64.70
2018-01-23T00:25:00.843Z,64.70
2018-01-23T00:27:30.562Z,64.70
2018-01-23T00:30:00.309Z,64.30
2018-01-23T00:32:29.255Z,64.30
2018-01-23T00:35:01.976Z,64.20
2018-01-23T00:37:30.927Z,64.10
2018-01-23T00:40:00.678Z,64.50
2018-01-23T00:42:29.633Z,64.50
2018-01-23T00:45:09.197Z,64.70
2018-01-23T00:47:38.151Z,64.70
2018-01-23T00:50:07.137Z,64.60
2018-01-23T00:52:36.999Z,64.50
2018-01-23T00:55:05.964Z,64.40
2018-01-23T00:57:35.719Z,64.20
2018-01-23T01:00:04.677Z,64.00
2018-01-23T01:02:34.404Z,63.70
2018-01-23T01:05:03.385Z,63.50
2018-01-23T01:07:41.998Z,63.50
2018-01-23T01:10:10.969Z,63.50
2018-01-23T01:13:04.479Z,63.10
2018-01-23T01:15:33.433Z,63.10
2018-01-23T01:18:03.178Z,62.80
2018-01-23T01:20:40.226Z,62.80
2018-01-23T01:23:09.961Z,62.70
2018-01-23T01:25:38.919Z,62.70
2018-01-23T01:28:20.838Z,63.00
2018-01-23T01:30:49.815Z,62.50
2018-01-23T01:33:18.789Z,62.50
2018-01-23T01:35:47.750Z,62.50
2018-01-23T01:38:16.702Z,62.20
2018-01-23T01:40:46.430Z,62.30
2018-01-23T01:43:15.415Z,62.30
2018-01-23T01:45:45.139Z,62.00
2018-01-23T01:48:14.074Z,61.80
2018-01-23T01:50:43.047Z,61.90
2018-01-23T01:53:16.410Z,61.50
2018-01-23T01:55:45.398Z,61.20
2018-01-23T01:58:14.359Z,61.20
2018-01-23T02:01:02.395Z,61.30
2018-01-23T02:03:31.338Z,60.70
2018-01-23T02:06:00.317Z,60.10
2018-01-23T02:08:49.774Z,59.90
2018-01-23T02:11:18.747Z,60.00
2018-01-23T02:13:47.706Z,60.10
2018-01-23T02:16:16.682Z,59.90
2018-01-23T02:18:45.629Z,59.60
2018-01-23T02:21:15.384Z,59.70
2018-01-23T02:23:44.330Z,59.70
2018-01-23T02:26:14.061Z,59.80
2018-01-23T02:28:55.141Z,60.00
2018-01-23T02:31:24.098Z,60.00
2018-01-23T02:33:53.056Z,60.30
2018-01-23T02:36:22.052Z,60.50
2018-01-23T02:38:50.995Z,60.60
2018-01-23T02:41:20.711Z,61.10
2018-01-23T02:43:49.682Z,61.10
2018-01-23T02:46:19.403Z,61.90
2018-01-23T02:48:52.939Z,63.00
2018-01-23T02:51:21.882Z,62.20
2018-01-23T02:53:51.639Z,63.20
2018-01-23T02:56:20.609Z,62.40
2018-01-23T02:58:50.327Z,64.00
2018-01-23T03:01:19.278Z,63.90
2018-01-23T03:04:18.756Z,64.50
2018-01-23T03:06:47.719Z,64.80
2018-01-23T03:09:16.698Z,64.80
2018-01-23T03:11:46.413Z,64.90
2018-01-23T03:14:15.405Z,64.90
2018-01-23T03:16:56.802Z,65.00
2018-01-23T03:19:25.782Z,65.70
2018-01-23T03:21:54.892Z,64.90
2018-01-23T03:27:31.994Z,64.50
2018-01-23T03:30:01.556Z,64.40
2018-01-23T03:32:30.515Z,64.50
2018-01-23T03:34:59.458Z,64.60
2018-01-23T03:37:38.907Z,64.50
2018-01-23T03:40:07.858Z,64.30
2018-01-23T03:42:36.822Z,64.30
2018-01-23T03:45:05.796Z,64.30
2018-01-23T03:47:34.764Z,64.20
2018-01-23T03:50:04.475Z,64.30
2018-01-23T03:52:33.442Z,64.30
2018-01-23T03:55:02.392Z,64.20
2018-01-23T03:57:32.199Z,64.00
2018-01-23T04:00:01.135Z,64.00
2018-01-23T04:02:30.103Z,64.80
2018-01-23T04:04:59.060Z,64.00
2018-01-23T04:07:28.028Z,63.90
2018-01-23T04:09:57.770Z,64.10
2018-01-23T04:12:26.722Z,64.10
2018-01-23T04:14:55.673Z,64.20
2018-01-23T04:17:24.654Z,64.20
2018-01-23T04:19:53.602Z,64.30
2018-01-23T04:22:23.336Z,63.90
2018-01-23T04:24:52.324Z,64.00
2018-01-23T04:27:21.351Z,64.60
2018-01-23T04:30:11.842Z,63.70
2018-01-23T04:32:40.882Z,63.50
2018-01-23T04:35:10.016Z,63.40
2018-01-23T04:37:39.019Z,63.40
2018-01-23T04:40:08.040Z,63.30
2018-01-23T04:42:37.095Z,63.10
2018-01-23T04:45:11.083Z,63.20
2018-01-23T04:47:40.856Z,63.20
2018-01-23T04:50:09.979Z,63.20
2018-01-23T04:52:42.090Z,62.80
2018-01-23T04:55:11.171Z,62.80
2018-01-23T04:57:40.352Z,62.90
2018-01-23T05:00:09.401Z,62.70
2018-01-23T05:02:38.566Z,62.50
2018-01-23T05:05:27.931Z,63.20
2018-01-23T05:13:03.227Z,62.40
2018-01-23T17:30:59.263Z,62.20
2018-01-23T17:33:35.397Z,61.80
2018-01-23T17:36:04.397Z,61.40
2018-01-23T17:38:44.306Z,60.90
2018-01-23T17:41:14.068Z,60.90
2018-01-23T17:43:43.085Z,60.70
2018-01-23T17:46:12.428Z,60.80
2018-01-23T17:48:49.751Z,60.80
2018-01-23T17:51:18.817Z,60.70
2018-01-23T17:53:47.859Z,60.50
2018-01-23T17:56:21.214Z,60.20
2018-01-23T17:58:50.258Z,60.20
2018-01-23T18:01:19.316Z,60.30
2018-01-23T18:03:50.749Z,60.30
2018-01-23T18:06:19.976Z,60.10
2018-01-23T18:08:51.027Z,60.30
2018-01-23T18:11:20.504Z,60.20
2018-01-23T18:13:49.528Z,60.10
2018-01-23T18:16:22.344Z,60.00
2018-01-23T18:18:51.587Z,59.90
2018-01-23T18:21:21.339Z,59.80
2018-01-23T18:23:58.816Z,59.80
2018-01-23T18:26:27.845Z,59.80
2018-01-23T18:28:56.950Z,59.70
2018-01-23T18:31:26.034Z,59.60
2018-01-23T18:33:56.018Z,59.60
2018-01-23T18:36:25.117Z,59.60
2018-01-23T18:38:54.342Z,59.80
2018-01-23T18:41:35.359Z,59.80
2018-01-23T18:44:04.411Z,59.90
2018-01-23T18:46:33.424Z,59.80
2018-01-23T18:49:02.462Z,60.00
2018-01-23T18:51:31.467Z,60.10
2018-01-23T18:54:01.277Z,60.20
2018-01-23T18:56:30.292Z,60.10
2018-01-23T18:58:59.371Z,60.20
2018-01-23T19:01:29.143Z,61.00
2018-01-23T19:04:03.055Z,60.30
2018-01-23T19:06:32.061Z,60.50
2018-01-23T19:09:01.092Z,60.40
2018-01-23T19:11:30.097Z,60.50
2018-01-23T19:13:59.144Z,60.50
2018-01-23T19:16:30.124Z,60.40
2018-01-23T19:18:59.289Z,60.20
2018-01-23T19:21:33.840Z,60.30
2018-01-23T19:24:06.993Z,60.20
2018-01-23T19:26:36.345Z,60.30
2018-01-23T19:29:05.816Z,60.30
2018-01-23T19:31:35.043Z,60.50
2018-01-23T19:34:15.353Z,60.30
2018-01-23T19:36:45.102Z,60.30
2018-01-23T19:39:14.394Z,60.50
2018-01-23T19:41:43.855Z,61.00
2018-01-23T19:44:13.854Z,61.20
2018-01-23T19:46:42.923Z,61.10
2018-01-23T19:49:12.237Z,61.20
2018-01-23T19:51:44.375Z,61.00
2018-01-23T19:54:14.710Z,61.00
2018-01-23T19:56:43.787Z,61.00
2018-01-23T19:59:14.367Z,61.10
2018-01-23T20:01:43.685Z,61.10
2018-01-23T20:04:15.017Z,61.10
2018-01-23T20:06:56.520Z,61.10
2018-01-23T20:09:25.832Z,61.20
2018-01-23T20:12:00.080Z,61.20
2018-01-23T20:14:34.481Z,61.20
2018-01-23T20:17:08.109Z,61.10
2018-01-23T20:19:37.381Z,61.00
2018-01-23T20:22:10.541Z,62.30
2018-01-23T20:24:58.427Z,61.60
2018-01-23T20:27:33.889Z,61.80
2018-01-23T20:30:03.365Z,61.60
2018-01-23T20:32:34.611Z,61.50
2018-01-23T20:35:06.538Z,61.60
2018-01-23T20:37:35.789Z,62.70
2018-01-23T20:40:05.099Z,62.00
2018-01-23T20:42:35.378Z,61.90
2018-01-23T20:45:05.780Z,61.70
2018-01-23T20:47:35.458Z,61.30
2018-01-23T20:50:04.797Z,60.90
2018-01-23T20:52:39.027Z,61.80
2018-01-23T20:55:08.579Z,61.80
2018-01-23T20:57:38.171Z,61.90
2018-01-23T21:00:08.103Z,61.70
2018-01-23T21:02:41.020Z,61.90
2018-01-23T21:05:14.840Z,61.80
2018-01-23T21:08:02.817Z,61.80
2018-01-23T21:10:31.991Z,61.80
2018-01-23T21:13:01.198Z,61.80
2018-01-23T21:15:35.430Z,62.00
2018-01-23T21:18:04.656Z,61.90
2018-01-23T21:20:33.777Z,61.90
2018-01-23T21:23:03.862Z,62.00
2018-01-23T21:25:39.133Z,62.20
2018-01-23T21:28:08.727Z,62.40
2018-01-23T21:30:38.168Z,62.50
2018-01-23T21:33:09.406Z,62.50
2018-01-23T21:35:38.982Z,62.70
2018-01-23T21:38:15.825Z,62.80
2018-01-23T21:40:45.395Z,62.70
2018-01-23T21:43:15.731Z,62.90
2018-01-23T21:45:46.449Z,62.70
2018-01-23T21:48:17.490Z,62.60
2018-01-23T21:50:48.499Z,62.60
2018-01-23T21:53:19.293Z,62.40
2018-01-23T21:55:48.348Z,62.30
2018-01-23T21:58:17.597Z,62.30
2018-01-23T22:00:47.188Z,62.20
2018-01-23T22:03:18.114Z,62.30
2018-01-23T22:05:47.901Z,62.60
2018-01-23T22:08:18.212Z,62.60
2018-01-23T22:10:48.648Z,62.70
2018-01-23T22:13:19.397Z,62.70
2018-01-23T22:15:48.401Z,62.70
2018-01-23T22:18:18.204Z,62.90
2018-01-23T22:20:51.516Z,62.90
2018-01-23T22:23:21.617Z,63.00
2018-01-23T22:25:54.941Z,63.00
2018-01-23T22:28:23.980Z,63.00
2018-01-23T22:30:54.886Z,63.00
2018-01-23T22:33:24.190Z,62.90
2018-01-23T22:35:55.213Z,62.80
2018-01-23T22:38:24.229Z,62.70
2018-01-23T22:40:53.406Z,62.80
2018-01-23T22:43:23.967Z,62.90
2018-01-23T22:45:53.202Z,62.90
2018-01-23T22:48:22.981Z,63.10
2018-01-23T22:50:53.987Z,63.10
2018-01-23T22:53:23.004Z,63.10
2018-01-23T22:55:52.132Z,63.20
2018-01-23T22:58:21.292Z,63.10
2018-01-23T23:00:53.119Z,63.00
2018-01-23T23:03:22.225Z,63.00
2018-01-23T23:05:51.225Z,63.10
2018-01-23T23:08:21.936Z,63.10
2018-01-23T23:10:54.275Z,63.20
2018-01-23T23:13:23.481Z,63.10
2018-01-23T23:15:52.484Z,63.20
2018-01-23T23:18:21.612Z,63.20
2018-01-23T23:20:50.700Z,63.20
2018-01-23T23:23:19.912Z,63.40
2018-01-23T23:25:48.912Z,63.20
2018-01-23T23:28:19.183Z,63.20
2018-01-23T23:30:49.000Z,62.80
2018-01-23T23:33:18.604Z,62.80
2018-01-23T23:35:47.679Z,62.50
2018-01-23T23:38:21.324Z,62.60
2018-01-23T23:40:50.327Z,62.60
2018-01-23T23:43:19.361Z,62.50
2018-01-23T23:45:48.362Z,62.40
2018-01-23T23:48:21.912Z,62.60
2018-01-23T23:50:50.909Z,63.30
2018-01-23T23:53:19.908Z,62.70
2018-01-23T23:55:48.936Z,62.80
2018-01-23T23:58:17.932Z,63.00
